sensor_id;sensor_type;location;lat;lon;timestamp;pressure;altitude;pressure_sealevel;temperature;humidity
9141;BME280;46330;50.822;7.126;2024-02-26T00:02:15;99135.47;;;6.70;87.19
9141;BME280;46330;50.822;7.126;2024-02-26T00:04:44;99139.88;;;6.67;88.73
9141;BME280;46330;50.822;7.126;2024-02-26T00:07:12;99126.19;;;6.62;88.96
9141;BME280;46330;50.822;7.126;2024-02-26T00:09:40;99114.16;;;6.58;88.81
9141;BME280;46330;50.822;7.126;2024-02-26T00:12:08;99113.47;;;6.51;91.08
9141;BME280;46330;50.822;7.126;2024-02-26T00:14:36;99103.22;;;6.46;90.82
9141;BME280;46330;50.822;7.126;2024-02-26T00:17:04;99104.13;;;6.45;90.90
9141;BME280;46330;50.822;7.126;2024-02-26T00:19:32;99080.88;;;6.41;92.72
9141;BME280;46330;50.822;7.126;2024-02-26T00:22:01;99089.47;;;6.43;92.50
9141;BME280;46330;50.822;7.126;2024-02-26T00:24:29;99085.06;;;6.45;92.55
9141;BME280;46330;50.822;7.126;2024-02-26T00:26:57;99090.25;;;6.46;92.79
9141;BME280;46330;50.822;7.126;2024-02-26T00:29:25;99090.28;;;6.45;92.97
9141;BME280;46330;50.822;7.126;2024-02-26T00:31:53;99092.94;;;6.43;93.33
9141;BME280;46330;50.822;7.126;2024-02-26T00:34:21;99093.81;;;6.42;94.19
9141;BME280;46330;50.822;7.126;2024-02-26T00:36:49;99092.19;;;6.38;95.02
9141;BME280;46330;50.822;7.126;2024-02-26T00:39:18;99099.88;;;6.43;95.42
9141;BME280;46330;50.822;7.126;2024-02-26T00:41:46;99096.47;;;6.41;95.21
9141;BME280;46330;50.822;7.126;2024-02-26T00:44:14;99098.22;;;6.39;95.96
9141;BME280;46330;50.822;7.126;2024-02-26T00:46:42;99096.56;;;6.38;97.03
9141;BME280;46330;50.822;7.126;2024-02-26T00:49:10;99085.47;;;6.31;95.75
9141;BME280;46330;50.822;7.126;2024-02-26T00:51:38;99081.13;;;6.32;96.26
9141;BME280;46330;50.822;7.126;2024-02-26T00:54:06;99084.69;;;6.28;98.35
9141;BME280;46330;50.822;7.126;2024-02-26T00:56:35;99074.31;;;6.28;98.81
9141;BME280;46330;50.822;7.126;2024-02-26T00:59:03;99084.69;;;6.28;98.94
9141;BME280;46330;50.822;7.126;2024-02-26T01:01:31;99079.63;;;6.23;99.70
9141;BME280;46330;50.822;7.126;2024-02-26T01:03:59;99084.81;;;6.23;99.44
9141;BME280;46330;50.822;7.126;2024-02-26T01:06:27;99087.38;;;6.25;99.35
9141;BME280;46330;50.822;7.126;2024-02-26T01:08:55;99076.16;;;6.23;99.95
9141;BME280;46330;50.822;7.126;2024-02-26T01:11:23;99088.25;;;6.25;100.00
9141;BME280;46330;50.822;7.126;2024-02-26T01:13:52;99086.47;;;6.26;100.00
9141;BME280;46330;50.822;7.126;2024-02-26T01:16:23;99080.53;;;6.22;100.00
9141;BME280;46330;50.822;7.126;2024-02-26T01:18:51;99082.19;;;6.25;100.00
9141;BME280;46330;50.822;7.126;2024-02-26T01:21:19;99087.56;;;6.17;100.00
9141;BME280;46330;50.822;7.126;2024-02-26T01:23:47;99073.66;;;6.20;100.00
9141;BME280;46330;50.822;7.126;2024-02-26T01:26:15;99079.94;;;6.13;100.00
9141;BME280;46330;50.822;7.126;2024-02-26T01:28:43;99074.81;;;6.10;100.00
9141;BME280;46330;50.822;7.126;2024-02-26T01:31:12;99065.41;;;6.04;100.00
9141;BME280;46330;50.822;7.126;2024-02-26T01:33:40;99073.25;;;6.03;100.00
9141;BME280;46330;50.822;7.126;2024-02-26T01:36:08;99076.66;;;6.05;100.00
9141;BME280;46330;50.822;7.126;2024-02-26T01:38:36;99085.38;;;6.02;100.00
9141;BME280;46330;50.822;7.126;2024-02-26T01:41:04;99077.72;;;5.98;100.00
9141;BME280;46330;50.822;7.126;2024-02-26T01:43:32;99083.00;;;5.94;100.00
9141;BME280;46330;50.822;7.126;2024-02-26T01:46:00;99082.16;;;5.94;100.00
9141;BME280;46330;50.822;7.126;2024-02-26T01:48:30;99076.13;;;5.92;100.00
9141;BME280;46330;50.822;7.126;2024-02-26T01:50:58;99078.72;;;5.92;100.00
9141;BME280;46330;50.822;7.126;2024-02-26T01:53:26;99063.13;;;5.93;100.00
9141;BME280;46330;50.822;7.126;2024-02-26T01:55:54;99066.69;;;5.89;100.00
9141;BME280;46330;50.822;7.126;2024-02-26T01:58:22;99067.50;;;5.91;100.00
9141;BME280;46330;50.822;7.126;2024-02-26T02:00:50;99048.44;;;5.92;100.00
9141;BME280;46330;50.822;7.126;2024-02-26T02:03:18;99051.81;;;5.96;100.00
9141;BME280;46330;50.822;7.126;2024-02-26T02:05:48;99048.41;;;5.94;100.00
9141;BME280;46330;50.822;7.126;2024-02-26T02:08:16;99058.78;;;5.94;100.00
9141;BME280;46330;50.822;7.126;2024-02-26T02:10:44;99046.69;;;5.93;100.00
9141;BME280;46330;50.822;7.126;2024-02-26T02:13:14;99048.41;;;5.94;100.00
9141;BME280;46330;50.822;7.126;2024-02-26T02:15:42;99049.28;;;5.93;100.00
9141;BME280;46330;50.822;7.126;2024-02-26T02:18:10;99057.97;;;5.92;100.00
9141;BME280;46330;50.822;7.126;2024-02-26T02:20:39;99056.19;;;5.94;100.00
9141;BME280;46330;50.822;7.126;2024-02-26T02:23:07;99058.75;;;5.95;100.00
9141;BME280;46330;50.822;7.126;2024-02-26T02:25:35;99055.28;;;5.95;100.00
9141;BME280;46330;50.822;7.126;2024-02-26T02:28:04;99050.16;;;5.93;100.00
9141;BME280;46330;50.822;7.126;2024-02-26T02:30:32;99052.78;;;5.92;100.00
9141;BME280;46330;50.822;7.126;2024-02-26T02:33:02;99041.56;;;5.91;100.00
9141;BME280;46330;50.822;7.126;2024-02-26T02:35:30;99047.59;;;5.92;100.00
9141;BME280;46330;50.822;7.126;2024-02-26T02:38:00;99041.59;;;5.90;100.00
9141;BME280;46330;50.822;7.126;2024-02-26T02:40:28;99039.84;;;5.90;100.00
9141;BME280;46330;50.822;7.126;2024-02-26T02:42:55;99039.78;;;5.92;100.00
9141;BME280;46330;50.822;7.126;2024-02-26T02:45:23;99037.25;;;5.90;100.00
9141;BME280;46330;50.822;7.126;2024-02-26T02:47:51;99043.38;;;5.88;100.00
9141;BME280;46330;50.822;7.126;2024-02-26T02:50:19;99041.59;;;5.90;100.00
9141;BME280;46330;50.822;7.126;2024-02-26T02:52:47;99036.31;;;5.93;100.00
9141;BME280;46330;50.822;7.126;2024-02-26T02:55:18;99030.25;;;5.94;100.00
9141;BME280;46330;50.822;7.126;2024-02-26T02:57:46;99031.94;;;5.95;100.00
9141;BME280;46330;50.822;7.126;2024-02-26T03:00:14;99033.63;;;5.98;100.00
9141;BME280;46330;50.822;7.126;2024-02-26T03:02:42;99035.28;;;6.00;100.00
9141;BME280;46330;50.822;7.126;2024-02-26T03:05:12;99051.72;;;5.99;100.00
9141;BME280;46330;50.822;7.126;2024-02-26T03:07:40;99055.19;;;6.00;100.00
9141;BME280;46330;50.822;7.126;2024-02-26T03:10:08;99050.78;;;6.02;100.00
9141;BME280;46330;50.822;7.126;2024-02-26T03:12:37;99063.00;;;5.98;100.00
9141;BME280;46330;50.822;7.126;2024-02-26T03:15:06;99063.94;;;5.95;100.00
9141;BME280;46330;50.822;7.126;2024-02-26T03:17:34;99059.75;;;5.90;100.00
9141;BME280;46330;50.822;7.126;2024-02-26T03:20:02;99060.56;;;5.92;100.00
9141;BME280;46330;50.822;7.126;2024-02-26T03:22:31;99058.03;;;5.89;100.00
9141;BME280;46330;50.822;7.126;2024-02-26T03:24:59;99052.81;;;5.90;100.00
9141;BME280;46330;50.822;7.126;2024-02-26T03:27:27;99061.47;;;5.91;100.00
9141;BME280;46330;50.822;7.126;2024-02-26T03:29:57;99054.56;;;5.90;100.00
9141;BME280;46330;50.822;7.126;2024-02-26T03:32:26;99059.84;;;5.87;100.00
9141;BME280;46330;50.822;7.126;2024-02-26T03:34:54;99057.25;;;5.85;100.00
9141;BME280;46330;50.822;7.126;2024-02-26T03:37:22;99043.41;;;5.86;100.00
9141;BME280;46330;50.822;7.126;2024-02-26T03:39:50;99053.84;;;5.83;100.00
9141;BME280;46330;50.822;7.126;2024-02-26T03:42:18;99054.88;;;5.76;100.00
9141;BME280;46330;50.822;7.126;2024-02-26T03:44:46;99056.50;;;5.80;100.00
9141;BME280;46330;50.822;7.126;2024-02-26T03:47:16;99055.66;;;5.80;100.00
9141;BME280;46330;50.822;7.126;2024-02-26T03:49:44;99058.25;;;5.80;100.00
9141;BME280;46330;50.822;7.126;2024-02-26T03:52:12;99055.00;;;5.72;100.00
9141;BME280;46330;50.822;7.126;2024-02-26T03:54:39;99061.91;;;5.73;100.00
9141;BME280;46330;50.822;7.126;2024-02-26T03:57:07;99066.25;;;5.72;100.00
9141;BME280;46330;50.822;7.126;2024-02-26T03:59:35;99057.59;;;5.72;100.00
9141;BME280;46330;50.822;7.126;2024-02-26T04:02:03;99066.34;;;5.68;100.00
9141;BME280;46330;50.822;7.126;2024-02-26T04:04:35;99063.03;;;5.61;100.00
9141;BME280;46330;50.822;7.126;2024-02-26T04:07:03;99069.09;;;5.62;100.00
9141;BME280;46330;50.822;7.126;2024-02-26T04:09:31;99072.56;;;5.61;100.00
9141;BME280;46330;50.822;7.126;2024-02-26T04:11:59;99076.00;;;5.61;100.00
9141;BME280;46330;50.822;7.126;2024-02-26T04:14:27;99076.78;;;5.65;100.00
9141;BME280;46330;50.822;7.126;2024-02-26T04:16:55;99083.78;;;5.63;100.00
9141;BME280;46330;50.822;7.126;2024-02-26T04:19:23;99089.88;;;5.60;100.00
9141;BME280;46330;50.822;7.126;2024-02-26T04:21:53;99085.50;;;5.62;100.00
9141;BME280;46330;50.822;7.126;2024-02-26T04:24:21;99088.94;;;5.63;100.00
9141;BME280;46330;50.822;7.126;2024-02-26T04:26:49;99093.28;;;5.62;100.00
9141;BME280;46330;50.822;7.126;2024-02-26T04:29:17;99102.84;;;5.60;100.00
9141;BME280;46330;50.822;7.126;2024-02-26T04:31:45;99103.00;;;5.54;100.00
9141;BME280;46330;50.822;7.126;2024-02-26T04:34:14;99104.66;;;5.57;100.00
9141;BME280;46330;50.822;7.126;2024-02-26T04:36:42;99109.78;;;5.58;100.00
9141;BME280;46330;50.822;7.126;2024-02-26T04:39:11;99110.72;;;5.56;100.00
9141;BME280;46330;50.822;7.126;2024-02-26T04:41:39;99109.78;;;5.60;100.00
9141;BME280;46330;50.822;7.126;2024-02-26T04:44:07;99108.13;;;5.57;100.00
9141;BME280;46330;50.822;7.126;2024-02-26T04:46:35;99112.47;;;5.55;100.00
9141;BME280;46330;50.822;7.126;2024-02-26T04:49:03;99106.56;;;5.49;100.00
9141;BME280;46330;50.822;7.126;2024-02-26T04:51:31;99109.13;;;5.50;100.00
9141;BME280;46330;50.822;7.126;2024-02-26T04:53:59;99105.69;;;5.50;100.00
9141;BME280;46330;50.822;7.126;2024-02-26T04:56:28;99114.34;;;5.49;100.00
9141;BME280;46330;50.822;7.126;2024-02-26T04:58:56;99105.75;;;5.47;100.00
9141;BME280;46330;50.822;7.126;2024-02-26T05:01:49;99111.81;;;5.47;100.00
9141;BME280;46330;50.822;7.126;2024-02-26T05:04:19;99113.47;;;5.50;100.00
9141;BME280;46330;50.822;7.126;2024-02-26T05:06:47;99102.38;;;5.45;100.00
9141;BME280;46330;50.822;7.126;2024-02-26T05:09:15;99100.66;;;5.42;100.00
9141;BME280;46330;50.822;7.126;2024-02-26T05:11:44;99101.66;;;5.38;100.00
9141;BME280;46330;50.822;7.126;2024-02-26T05:14:12;99100.81;;;5.36;100.00
9141;BME280;46330;50.822;7.126;2024-02-26T05:16:40;99095.63;;;5.36;100.00
9141;BME280;46330;50.822;7.126;2024-02-26T05:19:08;99096.69;;;5.29;100.00
9141;BME280;46330;50.822;7.126;2024-02-26T05:21:36;99096.63;;;5.30;100.00
9141;BME280;46330;50.822;7.126;2024-02-26T05:24:05;99102.69;;;5.29;100.00
9141;BME280;46330;50.822;7.126;2024-02-26T05:26:33;99098.50;;;5.24;100.00
9141;BME280;46330;50.822;7.126;2024-02-26T05:29:02;99101.94;;;5.26;100.00
9141;BME280;46330;50.822;7.126;2024-02-26T05:31:30;99094.03;;;5.30;100.00
9141;BME280;46330;50.822;7.126;2024-02-26T05:33:58;99102.66;;;5.31;100.00
9141;BME280;46330;50.822;7.126;2024-02-26T05:36:28;99096.56;;;5.33;100.00
9141;BME280;46330;50.822;7.126;2024-02-26T05:39:00;99097.41;;;5.34;100.00
9141;BME280;46330;50.822;7.126;2024-02-26T05:41:28;99107.78;;;5.34;100.00
9141;BME280;46330;50.822;7.126;2024-02-26T05:43:56;99104.31;;;5.35;100.00
9141;BME280;46330;50.822;7.126;2024-02-26T05:46:25;99105.19;;;5.34;100.00
9141;BME280;46330;50.822;7.126;2024-02-26T05:48:54;99105.13;;;5.37;100.00
9141;BME280;46330;50.822;7.126;2024-02-26T05:51:22;99098.22;;;5.36;100.00
9141;BME280;46330;50.822;7.126;2024-02-26T05:53:50;99093.03;;;5.36;100.00
9141;BME280;46330;50.822;7.126;2024-02-26T05:56:22;99112.09;;;5.35;100.00
9141;BME280;46330;50.822;7.126;2024-02-26T05:58:50;99109.50;;;5.35;100.00
9141;BME280;46330;50.822;7.126;2024-02-26T06:01:19;99114.59;;;5.38;100.00
9141;BME280;46330;50.822;7.126;2024-02-26T06:03:49;99114.63;;;5.36;100.00
9141;BME280;46330;50.822;7.126;2024-02-26T06:06:17;99125.13;;;5.32;100.00
9141;BME280;46330;50.822;7.126;2024-02-26T06:08:45;99131.13;;;5.32;100.00
9141;BME280;46330;50.822;7.126;2024-02-26T06:11:13;99131.19;;;5.29;100.00
9141;BME280;46330;50.822;7.126;2024-02-26T06:13:41;99131.19;;;5.29;100.00
9141;BME280;46330;50.822;7.126;2024-02-26T06:16:09;99131.13;;;5.32;100.00
9141;BME280;46330;50.822;7.126;2024-02-26T06:18:37;99142.34;;;5.33;100.00
9141;BME280;46330;50.822;7.126;2024-02-26T06:21:10;99141.56;;;5.29;100.00
9141;BME280;46330;50.822;7.126;2024-02-26T06:23:39;99145.00;;;5.31;100.00
9141;BME280;46330;50.822;7.126;2024-02-26T06:26:07;99144.22;;;5.28;100.00
9141;BME280;46330;50.822;7.126;2024-02-26T06:28:36;99148.53;;;5.29;100.00
9141;BME280;46330;50.822;7.126;2024-02-26T06:31:07;99147.63;;;5.30;100.00
9141;BME280;46330;50.822;7.126;2024-02-26T06:33:35;99156.28;;;5.29;100.00
9141;BME280;46330;50.822;7.126;2024-02-26T06:36:04;99156.31;;;5.27;100.00
9141;BME280;46330;50.822;7.126;2024-02-26T06:38:33;99161.34;;;5.33;100.00
9141;BME280;46330;50.822;7.126;2024-02-26T06:41:01;99159.69;;;5.31;100.00
9141;BME280;46330;50.822;7.126;2024-02-26T06:43:30;99170.00;;;5.32;100.00
9141;BME280;46330;50.822;7.126;2024-02-26T06:45:58;99159.78;;;5.26;100.00
9141;BME280;46330;50.822;7.126;2024-02-26T06:48:25;99176.19;;;5.27;100.00
9141;BME280;46330;50.822;7.126;2024-02-26T06:50:54;99177.03;;;5.29;100.00
9141;BME280;46330;50.822;7.126;2024-02-26T06:53:22;99177.91;;;5.28;100.00
9141;BME280;46330;50.822;7.126;2024-02-26T06:55:51;99181.34;;;5.28;100.00
9141;BME280;46330;50.822;7.126;2024-02-26T06:58:19;99189.19;;;5.25;100.00
9141;BME280;46330;50.822;7.126;2024-02-26T07:00:47;99182.22;;;5.27;100.00
9141;BME280;46330;50.822;7.126;2024-02-26T07:03:15;99177.94;;;5.26;100.00
9141;BME280;46330;50.822;7.126;2024-02-26T07:05:43;99188.34;;;5.25;100.00
9141;BME280;46330;50.822;7.126;2024-02-26T07:08:12;99200.44;;;5.26;100.00
9141;BME280;46330;50.822;7.126;2024-02-26T07:10:39;99195.31;;;5.21;100.00
9141;BME280;46330;50.822;7.126;2024-02-26T07:13:09;99197.03;;;5.22;100.00
9141;BME280;46330;50.822;7.126;2024-02-26T07:15:37;99200.50;;;5.23;100.00
9141;BME280;46330;50.822;7.126;2024-02-26T07:18:05;99195.38;;;5.18;100.00
9141;BME280;46330;50.822;7.126;2024-02-26T07:20:33;99204.78;;;5.24;100.00
9141;BME280;46330;50.822;7.126;2024-02-26T07:23:01;99211.72;;;5.22;100.00
9141;BME280;46330;50.822;7.126;2024-02-26T07:25:29;99216.06;;;5.21;100.00
9141;BME280;46330;50.822;7.126;2024-02-26T07:27:57;99207.38;;;5.24;100.00
9141;BME280;46330;50.822;7.126;2024-02-26T07:30:26;99218.59;;;5.24;100.00
9141;BME280;46330;50.822;7.126;2024-02-26T07:32:54;99217.84;;;5.19;100.00
9141;BME280;46330;50.822;7.126;2024-02-26T07:35:23;99219.59;;;5.17;100.00
9141;BME280;46330;50.822;7.126;2024-02-26T07:37:51;99223.03;;;5.19;100.00
9141;BME280;46330;50.822;7.126;2024-02-26T07:40:19;99212.66;;;5.18;100.00
9141;BME280;46330;50.822;7.126;2024-02-26T07:42:47;99217.06;;;5.14;100.00
9141;BME280;46330;50.822;7.126;2024-02-26T07:45:15;99224.78;;;5.17;100.00
9141;BME280;46330;50.822;7.126;2024-02-26T07:47:47;99223.88;;;5.20;100.00
9141;BME280;46330;50.822;7.126;2024-02-26T07:50:18;99220.50;;;5.16;100.00
9141;BME280;46330;50.822;7.126;2024-02-26T07:52:46;99221.34;;;5.17;100.00
9141;BME280;46330;50.822;7.126;2024-02-26T07:55:14;99235.13;;;5.17;100.00
9141;BME280;46330;50.822;7.126;2024-02-26T07:57:42;99229.91;;;5.20;100.00
9141;BME280;46330;50.822;7.126;2024-02-26T08:00:11;99244.56;;;5.21;100.00
9141;BME280;46330;50.822;7.126;2024-02-26T08:02:43;99243.78;;;5.18;100.00
9141;BME280;46330;50.822;7.126;2024-02-26T08:05:13;99248.91;;;5.21;100.00
9141;BME280;46330;50.822;7.126;2024-02-26T08:07:41;99247.97;;;5.25;100.00
9141;BME280;46330;50.822;7.126;2024-02-26T08:10:09;99248.78;;;5.27;100.00
9141;BME280;46330;50.822;7.126;2024-02-26T08:12:37;99242.78;;;5.23;100.00
9141;BME280;46330;50.822;7.126;2024-02-26T08:15:07;99249.75;;;5.21;100.00
9141;BME280;46330;50.822;7.126;2024-02-26T08:17:35;99260.94;;;5.23;100.00
9141;BME280;46330;50.822;7.126;2024-02-26T08:20:04;99257.53;;;5.21;100.00
9141;BME280;46330;50.822;7.126;2024-02-26T08:22:33;99263.56;;;5.22;100.00
9141;BME280;46330;50.822;7.126;2024-02-26T08:25:02;99279.06;;;5.23;100.00
9141;BME280;46330;50.822;7.126;2024-02-26T08:27:33;99278.13;;;5.27;100.00
9141;BME280;46330;50.822;7.126;2024-02-26T08:30:01;99295.47;;;5.25;100.00
9141;BME280;46330;50.822;7.126;2024-02-26T08:32:29;99292.09;;;5.22;100.00
9141;BME280;46330;50.822;7.126;2024-02-26T08:34:57;99295.53;;;5.22;100.00
9141;BME280;46330;50.822;7.126;2024-02-26T08:37:25;99290.34;;;5.22;100.00
9141;BME280;46330;50.822;7.126;2024-02-26T08:39:54;99295.59;;;5.18;100.00
9141;BME280;46330;50.822;7.126;2024-02-26T08:42:22;99300.72;;;5.21;100.00
9141;BME280;46330;50.822;7.126;2024-02-26T08:44:51;99296.41;;;5.21;100.00
9141;BME280;46330;50.822;7.126;2024-02-26T08:47:21;99293.75;;;5.24;100.00
9141;BME280;46330;50.822;7.126;2024-02-26T08:49:49;99300.72;;;5.21;100.00
9141;BME280;46330;50.822;7.126;2024-02-26T08:52:17;99310.22;;;5.22;100.00
9141;BME280;46330;50.822;7.126;2024-02-26T08:54:45;99309.38;;;5.21;100.00
9141;BME280;46330;50.822;7.126;2024-02-26T08:57:14;99310.19;;;5.23;100.00
9141;BME280;46330;50.822;7.126;2024-02-26T08:59:42;99311.03;;;5.25;100.00
9141;BME280;46330;50.822;7.126;2024-02-26T09:02:10;99321.34;;;5.28;100.00
9141;BME280;46330;50.822;7.126;2024-02-26T09:04:38;99323.13;;;5.25;100.00
9141;BME280;46330;50.822;7.126;2024-02-26T09:07:06;99315.25;;;5.29;100.00
9141;BME280;46330;50.822;7.126;2024-02-26T09:09:34;99326.56;;;5.25;100.00
9141;BME280;46330;50.822;7.126;2024-02-26T09:12:03;99325.72;;;5.23;100.00
9141;BME280;46330;50.822;7.126;2024-02-26T09:14:32;99319.66;;;5.24;100.00
9141;BME280;46330;50.822;7.126;2024-02-26T09:17:00;99323.97;;;5.25;100.00
9141;BME280;46330;50.822;7.126;2024-02-26T09:19:28;99326.63;;;5.22;100.00
9141;BME280;46330;50.822;7.126;2024-02-26T09:21:56;99334.34;;;5.25;100.00
9141;BME280;46330;50.822;7.126;2024-02-26T09:24:25;99334.41;;;5.22;100.00
9141;BME280;46330;50.822;7.126;2024-02-26T09:26:53;99338.69;;;5.23;100.00
9141;BME280;46330;50.822;7.126;2024-02-26T09:29:21;99345.53;;;5.27;100.00
9141;BME280;46330;50.822;7.126;2024-02-26T09:31:51;99345.53;;;5.27;100.00
9141;BME280;46330;50.822;7.126;2024-02-26T09:34:19;99350.66;;;5.32;100.00
9141;BME280;46330;50.822;7.126;2024-02-26T09:36:47;99351.59;;;5.26;100.00
9141;BME280;46330;50.822;7.126;2024-02-26T09:39:15;99360.06;;;5.36;100.00
9141;BME280;46330;50.822;7.126;2024-02-26T09:41:48;99357.44;;;5.37;100.00
9141;BME280;46330;50.822;7.126;2024-02-26T09:44:19;99358.50;;;5.27;100.00
9141;BME280;46330;50.822;7.126;2024-02-26T09:46:47;99358.44;;;5.32;100.00
9141;BME280;46330;50.822;7.126;2024-02-26T09:49:18;99363.50;;;5.38;100.00
9141;BME280;46330;50.822;7.126;2024-02-26T09:51:49;99370.22;;;5.47;100.00
9141;BME280;46330;50.822;7.126;2024-02-26T09:54:17;99367.59;;;5.48;100.00
9141;BME280;46330;50.822;7.126;2024-02-26T09:56:48;99371.97;;;5.46;100.00
9141;BME280;46330;50.822;7.126;2024-02-26T09:59:29;99370.13;;;5.53;100.00
9141;BME280;46330;50.822;7.126;2024-02-26T10:02:07;99371.91;;;5.51;100.00
9141;BME280;46330;50.822;7.126;2024-02-26T10:04:38;99371.59;;;5.66;100.00
9141;BME280;46330;50.822;7.126;2024-02-26T10:07:10;99374.06;;;5.70;100.00
9141;BME280;46330;50.822;7.126;2024-02-26T10:09:39;99376.66;;;5.72;100.00
9141;BME280;46330;50.822;7.126;2024-02-26T10:12:10;99389.56;;;5.73;100.00
9141;BME280;46330;50.822;7.126;2024-02-26T10:14:39;99380.03;;;5.75;100.00
9141;BME280;46330;50.822;7.126;2024-02-26T10:17:07;99384.44;;;5.70;100.00
9141;BME280;46330;50.822;7.126;2024-02-26T10:19:37;99377.25;;;5.86;100.00
9141;BME280;46330;50.822;7.126;2024-02-26T10:22:06;99380.78;;;5.82;100.00
9141;BME280;46330;50.822;7.126;2024-02-26T10:24:33;99384.25;;;5.79;100.00
9141;BME280;46330;50.822;7.126;2024-02-26T10:27:03;99382.16;;;6.00;100.00
9141;BME280;46330;50.822;7.126;2024-02-26T10:29:31;99391.53;;;6.07;100.00
9141;BME280;46330;50.822;7.126;2024-02-26T10:31:59;99399.25;;;6.10;100.00
9141;BME280;46330;50.822;7.126;2024-02-26T10:34:28;99388.69;;;6.17;100.00
9141;BME280;46330;50.822;7.126;2024-02-26T10:36:57;99392.00;;;6.25;100.00
9141;BME280;46330;50.822;7.126;2024-02-26T10:39:25;99399.31;;;6.45;100.00
9141;BME280;46330;50.822;7.126;2024-02-26T10:41:53;99397.91;;;6.32;100.00
9141;BME280;46330;50.822;7.126;2024-02-26T10:44:21;99400.47;;;6.33;100.00
9141;BME280;46330;50.822;7.126;2024-02-26T10:46:49;99404.78;;;6.33;100.00
9141;BME280;46330;50.822;7.126;2024-02-26T10:49:18;99405.72;;;6.30;100.00
9141;BME280;46330;50.822;7.126;2024-02-26T10:51:56;99413.34;;;6.38;100.00
9141;BME280;46330;50.822;7.126;2024-02-26T10:54:26;99407.91;;;6.48;100.00
9141;BME280;46330;50.822;7.126;2024-02-26T10:56:57;99417.69;;;6.37;100.00
9141;BME280;46330;50.822;7.126;2024-02-26T10:59:26;99411.66;;;6.35;100.00
9141;BME280;46330;50.822;7.126;2024-02-26T11:01:55;99418.94;;;6.58;100.00
9141;BME280;46330;50.822;7.126;2024-02-26T11:04:23;99413.97;;;6.49;100.00
9141;BME280;46330;50.822;7.126;2024-02-26T11:06:55;99428.22;;;6.30;100.00
9141;BME280;46330;50.822;7.126;2024-02-26T11:09:26;99432.22;;;6.46;100.00
9141;BME280;46330;50.822;7.126;2024-02-26T11:11:57;99427.88;;;6.46;100.00
9141;BME280;46330;50.822;7.126;2024-02-26T11:14:26;99432.94;;;6.53;100.00
9141;BME280;46330;50.822;7.126;2024-02-26T11:16:58;99445.72;;;6.60;100.00
9141;BME280;46330;50.822;7.126;2024-02-26T11:19:28;99446.06;;;6.45;100.00
9141;BME280;46330;50.822;7.126;2024-02-26T11:22:00;99455.59;;;6.46;100.00
9141;BME280;46330;50.822;7.126;2024-02-26T11:24:46;99458.84;;;6.54;100.00
9141;BME280;46330;50.822;7.126;2024-02-26T11:27:17;99456.16;;;6.59;100.00
9141;BME280;46330;50.822;7.126;2024-02-26T11:29:50;99462.50;;;6.47;100.00
9141;BME280;46330;50.822;7.126;2024-02-26T11:32:19;99455.22;;;6.63;100.00
9141;BME280;46330;50.822;7.126;2024-02-26T11:34:47;99473.75;;;6.46;100.00
9141;BME280;46330;50.822;7.126;2024-02-26T11:37:17;99472.75;;;6.53;100.00
9141;BME280;46330;50.822;7.126;2024-02-26T11:39:47;99476.28;;;6.49;100.00
9141;BME280;46330;50.822;7.126;2024-02-26T11:42:15;99476.00;;;6.63;100.00
9141;BME280;46330;50.822;7.126;2024-02-26T11:44:44;99472.69;;;6.55;100.00
9141;BME280;46330;50.822;7.126;2024-02-26T11:47:13;99466.50;;;6.62;100.00
9141;BME280;46330;50.822;7.126;2024-02-26T11:49:41;99471.69;;;6.60;100.00
9141;BME280;46330;50.822;7.126;2024-02-26T11:52:10;99470.66;;;6.69;100.00
9141;BME280;46330;50.822;7.126;2024-02-26T11:54:45;99466.25;;;6.72;100.00
9141;BME280;46330;50.822;7.126;2024-02-26T11:57:24;99469.22;;;6.94;100.00
9141;BME280;46330;50.822;7.126;2024-02-26T11:59:53;99463.25;;;6.90;100.00
9141;BME280;46330;50.822;7.126;2024-02-26T12:02:52;99470.63;;;7.07;100.00
9141;BME280;46330;50.822;7.126;2024-02-26T12:05:25;99467.84;;;7.15;100.00
9141;BME280;46330;50.822;7.126;2024-02-26T12:07:59;99472.97;;;7.18;100.00
9141;BME280;46330;50.822;7.126;2024-02-26T12:10:31;99479.06;;;7.17;100.00
9141;BME280;46330;50.822;7.126;2024-02-26T12:13:05;99473.34;;;7.02;100.00
9141;BME280;46330;50.822;7.126;2024-02-26T12:15:38;99478.03;;;7.24;100.00
9141;BME280;46330;50.822;7.126;2024-02-26T12:18:07;99484.94;;;7.25;100.00
9141;BME280;46330;50.822;7.126;2024-02-26T12:20:37;99478.13;;;7.19;100.00
9141;BME280;46330;50.822;7.126;2024-02-26T12:23:05;99489.22;;;7.26;100.00
9141;BME280;46330;50.822;7.126;2024-02-26T12:25:33;99497.31;;;7.15;100.00
9141;BME280;46330;50.822;7.126;2024-02-26T12:28:03;99499.13;;;7.12;100.00
9141;BME280;46330;50.822;7.126;2024-02-26T12:30:31;99498.13;;;7.17;100.00
9141;BME280;46330;50.822;7.126;2024-02-26T12:33:00;99496.41;;;7.16;100.00
9141;BME280;46330;50.822;7.126;2024-02-26T12:35:29;99504.03;;;7.24;100.00
9141;BME280;46330;50.822;7.126;2024-02-26T12:37:59;99515.81;;;7.01;100.00
9141;BME280;46330;50.822;7.126;2024-02-26T12:40:29;99515.53;;;7.14;100.00
9141;BME280;46330;50.822;7.126;2024-02-26T12:42:57;99518.91;;;7.17;100.00
9141;BME280;46330;50.822;7.126;2024-02-26T12:45:27;99519.91;;;7.12;100.00
9141;BME280;46330;50.822;7.126;2024-02-26T12:47:55;99520.13;;;7.02;100.00
9141;BME280;46330;50.822;7.126;2024-02-26T12:50:24;99529.38;;;7.14;100.00
9141;BME280;46330;50.822;7.126;2024-02-26T12:52:53;99531.91;;;7.17;100.00
9141;BME280;46330;50.822;7.126;2024-02-26T12:55:21;99530.25;;;7.15;100.00
9141;BME280;46330;50.822;7.126;2024-02-26T12:57:50;99537.13;;;7.17;100.00
9141;BME280;46330;50.822;7.126;2024-02-26T13:00:21;99539.41;;;7.31;100.00
9141;BME280;46330;50.822;7.126;2024-02-26T13:02:51;99547.50;;;7.17;100.00
9141;BME280;46330;50.822;7.126;2024-02-26T13:05:22;99548.22;;;7.24;100.00
9141;BME280;46330;50.822;7.126;2024-02-26T13:07:50;99554.16;;;7.29;100.00
9141;BME280;46330;50.822;7.126;2024-02-26T13:10:19;99561.22;;;7.25;100.00
9141;BME280;46330;50.822;7.126;2024-02-26T13:12:49;99562.28;;;7.52;100.00
9141;BME280;46330;50.822;7.126;2024-02-26T13:15:19;99564.66;;;7.63;100.00
9141;BME280;46330;50.822;7.126;2024-02-26T13:17:48;99572.28;;;7.33;100.00
9141;BME280;46330;50.822;7.126;2024-02-26T13:20:27;99572.28;;;7.33;100.00
9141;BME280;46330;50.822;7.126;2024-02-26T13:23:06;99584.78;;;7.54;100.00